Time;durP1;ratioP1;P1;durP2;ratioP2;P2;SDS_P1;SDS_P2;PMS_P1;PMS_P2;Temp;Humidity;BMP_temperature;BMP_pressure;BME280_temperature;BME280_humidity;BME280_pressure;Samples;Min_cycle;Max_cycle;Signal;HPM_P1;HPM_P2
2021/05/16 00:01:24;;;;;;;7.10;3.03;;;8.70;99.90;;;;;;487784;243;28452;-73
2021/05/16 00:03:25;;;;;;;7.73;3.30;;;8.70;99.90;;;;;;488261;242;27955;-73
2021/05/16 00:05:26;;;;;;;4.50;2.47;;;8.70;99.90;;;;;;488302;242;28013;-71
2021/05/16 00:07:27;;;;;;;3.93;2.27;;;8.70;99.90;;;;;;488399;242;28059;-73
2021/05/16 00:09:29;;;;;;;8.43;3.10;;;8.70;99.90;;;;;;488495;242;28363;-72
2021/05/16 00:11:30;;;;;;;7.70;2.60;;;8.70;99.90;;;;;;488418;242;28486;-72
2021/05/16 00:13:31;;;;;;;9.53;2.77;;;8.70;99.90;;;;;;488447;242;28500;-73
2021/05/16 00:15:32;;;;;;;6.87;2.30;;;8.70;99.90;;;;;;488423;242;28177;-72
2021/05/16 00:17:34;;;;;;;6.40;2.57;;;8.70;99.90;;;;;;488419;242;27985;-72
2021/05/16 00:19:35;;;;;;;5.23;2.63;;;8.70;99.90;;;;;;488440;242;28376;-72
2021/05/16 00:21:36;;;;;;;7.43;2.63;;;8.70;99.90;;;;;;488417;242;28178;-72
2021/05/16 00:23:37;;;;;;;7.57;2.80;;;8.70;99.90;;;;;;488424;242;28362;-73
2021/05/16 00:25:39;;;;;;;8.73;2.47;;;8.70;99.90;;;;;;488428;242;28358;-72
2021/05/16 00:27:40;;;;;;;4.10;1.93;;;8.70;99.90;;;;;;488433;242;28284;-73
2021/05/16 00:29:41;;;;;;;3.60;2.43;;;8.70;99.90;;;;;;488415;242;28410;-72
2021/05/16 00:31:42;;;;;;;6.97;2.30;;;8.70;99.90;;;;;;488484;242;27951;-72
2021/05/16 00:33:44;;;;;;;4.03;2.20;;;8.70;99.90;;;;;;488427;242;28046;-73
2021/05/16 00:35:45;;;;;;;4.17;2.20;;;8.70;99.90;;;;;;488417;242;28167;-72
2021/05/16 00:37:46;;;;;;;3.10;2.20;;;8.70;99.90;;;;;;488440;242;28041;-73
2021/05/16 00:39:47;;;;;;;5.63;2.23;;;8.70;99.90;;;;;;488432;242;27669;-72
2021/05/16 00:41:49;;;;;;;6.30;2.10;;;8.70;99.90;;;;;;488434;242;27892;-73
2021/05/16 00:43:50;;;;;;;5.10;1.93;;;8.70;99.90;;;;;;488425;242;28035;-72
2021/05/16 00:45:51;;;;;;;3.47;2.10;;;8.70;99.90;;;;;;488418;243;27927;-72
2021/05/16 00:47:52;;;;;;;7.20;2.20;;;8.70;99.90;;;;;;488414;242;28053;-73
2021/05/16 00:49:55;;;;;;;5.23;2.13;;;8.80;99.90;;;;;;488433;242;27596;-72
2021/05/16 00:51:55;;;;;;;2.00;1.80;;;8.80;99.90;;;;;;488376;242;27963;-72
2021/05/16 00:53:56;;;;;;;3.47;2.00;;;8.80;99.90;;;;;;488427;242;27908;-72
2021/05/16 00:55:57;;;;;;;3.73;2.10;;;8.80;99.90;;;;;;488403;242;28040;-73
2021/05/16 00:57:59;;;;;;;5.50;2.10;;;8.80;99.90;;;;;;488443;242;28487;-73
2021/05/16 01:00:00;;;;;;;6.60;2.03;;;8.80;99.90;;;;;;488429;242;28391;-72
2021/05/16 01:02:01;;;;;;;3.50;1.90;;;8.80;99.90;;;;;;488410;242;28057;-73
2021/05/16 01:04:02;;;;;;;2.50;1.83;;;8.80;99.90;;;;;;488479;242;28486;-72
2021/05/16 01:06:04;;;;;;;5.80;2.13;;;8.80;99.90;;;;;;488449;242;28193;-72
2021/05/16 01:08:05;;;;;;;6.80;1.80;;;8.80;99.90;;;;;;488424;242;27978;-74
2021/05/16 01:10:06;;;;;;;6.90;2.87;;;8.80;99.90;;;;;;488459;242;28086;-72
2021/05/16 01:12:08;;;;;;;6.77;1.90;;;8.80;99.90;;;;;;488457;242;28058;-73
2021/05/16 01:14:10;;;;;;;2.40;1.67;;;8.80;99.90;;;;;;488465;242;28052;-72
2021/05/16 01:16:10;;;;;;;2.33;1.70;;;8.80;99.90;;;;;;488445;242;27739;-72
2021/05/16 01:18:11;;;;;;;2.60;1.83;;;8.80;99.90;;;;;;488465;242;27924;-74
2021/05/16 01:20:13;;;;;;;3.47;1.50;;;8.80;99.90;;;;;;488447;242;27974;-72
2021/05/16 01:22:14;;;;;;;4.80;2.00;;;8.80;99.90;;;;;;488372;242;28193;-72
2021/05/16 01:24:16;;;;;;;3.40;1.70;;;8.80;99.90;;;;;;488440;242;28120;-73
2021/05/16 01:26:16;;;;;;;2.87;1.73;;;8.80;99.90;;;;;;488415;242;27852;-72
2021/05/16 01:28:17;;;;;;;2.00;1.50;;;8.80;99.90;;;;;;488469;242;27980;-73
2021/05/16 01:30:19;;;;;;;2.60;1.60;;;8.80;99.90;;;;;;488468;242;27954;-72
2021/05/16 01:32:21;;;;;;;4.53;1.63;;;8.80;99.90;;;;;;488472;242;27969;-74
2021/05/16 01:34:22;;;;;;;1.60;1.50;;;8.80;99.90;;;;;;488461;242;27951;-72
2021/05/16 01:36:22;;;;;;;1.70;1.60;;;8.90;99.90;;;;;;488451;242;28094;-73
2021/05/16 01:38:24;;;;;;;7.10;1.57;;;8.90;99.90;;;;;;488472;242;28353;-73
2021/05/16 01:40:25;;;;;;;3.63;1.57;;;8.90;99.90;;;;;;488424;242;28409;-73
2021/05/16 01:42:27;;;;;;;3.67;1.40;;;8.90;99.90;;;;;;488416;242;28415;-72
2021/05/16 01:44:27;;;;;;;4.73;1.77;;;8.90;99.90;;;;;;488423;242;28516;-73
2021/05/16 01:46:29;;;;;;;3.83;1.80;;;8.90;99.90;;;;;;488421;242;28055;-73
2021/05/16 01:48:30;;;;;;;2.93;1.37;;;8.90;99.90;;;;;;488421;242;28030;-72
2021/05/16 01:50:31;;;;;;;2.80;1.17;;;8.90;99.90;;;;;;488422;242;27848;-72
2021/05/16 01:52:32;;;;;;;1.83;1.50;;;9.00;99.90;;;;;;488406;242;27819;-73
2021/05/16 01:54:34;;;;;;;1.63;1.40;;;8.90;99.90;;;;;;488419;242;27955;-72
2021/05/16 01:56:35;;;;;;;2.20;1.33;;;9.00;99.90;;;;;;488424;242;28082;-73
2021/05/16 01:58:36;;;;;;;7.00;2.00;;;8.90;99.90;;;;;;488434;242;28083;-72
2021/05/16 02:00:37;;;;;;;6.70;2.07;;;9.00;99.90;;;;;;488415;242;28158;-72
2021/05/16 02:02:39;;;;;;;4.10;2.20;;;9.00;99.90;;;;;;488498;242;28038;-72
2021/05/16 02:04:40;;;;;;;4.20;2.40;;;8.90;99.90;;;;;;488476;242;27939;-73
2021/05/16 02:06:41;;;;;;;5.37;2.07;;;9.00;99.90;;;;;;488460;242;28038;-72
2021/05/16 02:08:42;;;;;;;4.47;2.00;;;9.00;99.90;;;;;;488420;242;28018;-73
2021/05/16 02:10:44;;;;;;;3.83;1.90;;;9.00;99.90;;;;;;488419;242;27850;-73
2021/05/16 02:12:45;;;;;;;5.10;2.00;;;9.00;99.90;;;;;;488417;242;28128;-73
2021/05/16 02:14:46;;;;;;;2.53;2.17;;;9.00;99.90;;;;;;488454;242;28412;-72
2021/05/16 02:16:47;;;;;;;3.43;1.93;;;9.00;99.90;;;;;;488397;242;28409;-72
2021/05/16 02:18:49;;;;;;;3.50;2.00;;;9.10;99.90;;;;;;488460;242;28938;-73
2021/05/16 02:20:50;;;;;;;2.77;1.53;;;9.10;99.90;;;;;;488393;242;28415;-73
2021/05/16 02:22:51;;;;;;;4.47;2.10;;;9.10;99.90;;;;;;488423;242;28430;-72
2021/05/16 02:24:52;;;;;;;2.50;1.73;;;9.00;99.90;;;;;;488413;242;27547;-72
2021/05/16 02:26:58;;;;;;;4.33;2.10;;;9.00;99.90;;;;;;488419;242;27819;-73
2021/05/16 02:28:55;;;;;;;2.97;1.83;;;9.10;99.90;;;;;;488242;243;27716;-72
2021/05/16 02:30:56;;;;;;;4.80;1.70;;;9.10;99.90;;;;;;488406;242;27821;-72
2021/05/16 02:32:57;;;;;;;2.33;1.70;;;9.10;99.90;;;;;;488416;242;27955;-74
2021/05/16 02:34:59;;;;;;;2.30;1.30;;;9.10;99.90;;;;;;488391;242;27944;-73
2021/05/16 02:37:00;;;;;;;2.90;1.90;;;9.10;99.90;;;;;;488410;242;27839;-73
2021/05/16 02:39:01;;;;;;;2.40;1.63;;;9.10;99.90;;;;;;488416;242;27915;-73
2021/05/16 02:41:02;;;;;;;4.00;1.90;;;9.10;99.90;;;;;;488419;242;27933;-73
2021/05/16 02:43:04;;;;;;;4.90;2.30;;;9.10;99.90;;;;;;488411;242;28087;-74
2021/05/16 02:45:05;;;;;;;1.90;1.80;;;9.10;99.90;;;;;;488478;242;27963;-72
2021/05/16 02:47:06;;;;;;;2.40;2.03;;;9.10;99.90;;;;;;488403;242;27838;-73
2021/05/16 02:49:07;;;;;;;6.90;2.13;;;9.10;99.90;;;;;;488415;242;27957;-73
2021/05/16 02:51:09;;;;;;;2.97;1.70;;;9.10;99.90;;;;;;488406;242;27585;-73
2021/05/16 02:53:10;;;;;;;4.37;1.70;;;9.10;99.90;;;;;;488391;243;28496;-73
2021/05/16 02:55:11;;;;;;;3.70;1.90;;;9.10;99.90;;;;;;488470;242;28578;-73
2021/05/16 02:57:12;;;;;;;3.20;1.97;;;9.10;99.90;;;;;;488398;242;28391;-73
2021/05/16 02:59:14;;;;;;;3.33;1.70;;;9.10;99.90;;;;;;488424;242;28396;-73
2021/05/16 03:01:15;;;;;;;2.17;1.97;;;9.20;99.90;;;;;;488375;242;28317;-72
2021/05/16 03:03:16;;;;;;;2.37;2.17;;;9.10;99.90;;;;;;488498;242;27985;-72
2021/05/16 03:05:17;;;;;;;4.10;2.37;;;9.10;99.90;;;;;;488499;242;28004;-73
2021/05/16 03:07:19;;;;;;;1.80;1.70;;;9.20;99.90;;;;;;488432;242;28078;-72
2021/05/16 03:09:20;;;;;;;4.67;2.00;;;9.10;99.90;;;;;;488501;242;27965;-73
2021/05/16 03:11:21;;;;;;;1.63;1.50;;;9.10;99.90;;;;;;488485;242;28017;-73
2021/05/16 03:13:22;;;;;;;5.00;2.20;;;9.20;99.90;;;;;;488479;242;27818;-73
2021/05/16 03:15:24;;;;;;;2.23;2.03;;;9.20;99.90;;;;;;488498;242;28006;-73
2021/05/16 03:17:25;;;;;;;2.03;1.83;;;9.20;99.90;;;;;;488464;242;28066;-73
2021/05/16 03:19:26;;;;;;;3.17;1.97;;;9.20;99.90;;;;;;488486;242;28035;-73
2021/05/16 03:21:27;;;;;;;3.00;2.07;;;9.20;99.90;;;;;;488443;242;27779;-73
2021/05/16 03:23:29;;;;;;;5.23;2.00;;;9.30;99.90;;;;;;488429;242;27962;-73
2021/05/16 03:25:30;;;;;;;3.03;1.70;;;9.30;99.90;;;;;;488440;242;27928;-73
2021/05/16 03:27:31;;;;;;;4.50;1.90;;;9.30;99.90;;;;;;488519;242;27950;-74
2021/05/16 03:29:34;;;;;;;1.50;1.40;;;9.20;99.90;;;;;;488501;242;28292;-73
2021/05/16 03:31:34;;;;;;;1.70;1.60;;;9.20;99.90;;;;;;488445;243;28486;-73
2021/05/16 03:33:35;;;;;;;2.07;1.70;;;9.20;99.90;;;;;;488479;242;28224;-73
2021/05/16 03:35:36;;;;;;;2.27;1.60;;;9.20;99.90;;;;;;488517;242;28378;-73
2021/05/16 03:37:37;;;;;;;1.67;1.57;;;9.30;99.90;;;;;;488459;242;28494;-73
2021/05/16 03:39:39;;;;;;;2.73;1.90;;;9.30;99.90;;;;;;488504;242;28454;-73
2021/05/16 03:41:40;;;;;;;1.70;1.60;;;9.30;99.90;;;;;;488426;242;27959;-73
2021/05/16 03:43:41;;;;;;;3.60;2.30;;;9.20;99.90;;;;;;488441;242;27685;-73
2021/05/16 03:45:43;;;;;;;1.70;1.60;;;9.20;99.90;;;;;;488438;242;27786;-73
2021/05/16 03:47:44;;;;;;;4.00;1.67;;;9.30;99.90;;;;;;488446;242;28055;-73
2021/05/16 03:49:45;;;;;;;1.90;1.70;;;9.30;99.90;;;;;;488429;242;27964;-73
2021/05/16 03:51:46;;;;;;;2.57;2.00;;;9.30;99.90;;;;;;488502;242;28669;-73
2021/05/16 03:53:47;;;;;;;2.70;2.40;;;9.30;99.90;;;;;;488439;242;27917;-73
2021/05/16 03:55:49;;;;;;;1.80;1.70;;;9.30;99.90;;;;;;488432;242;27949;-73
2021/05/16 03:57:50;;;;;;;2.17;1.90;;;9.30;99.90;;;;;;488496;242;27639;-73
2021/05/16 03:59:51;;;;;;;3.67;3.00;;;9.30;99.90;;;;;;488485;242;27959;-73
2021/05/16 04:01:52;;;;;;;1.83;1.70;;;9.30;99.90;;;;;;488476;242;27947;-73
2021/05/16 04:03:54;;;;;;;3.10;2.30;;;9.30;99.90;;;;;;488496;242;28145;-73
2021/05/16 04:05:55;;;;;;;3.93;2.90;;;9.20;99.90;;;;;;488504;242;27673;-73
2021/05/16 04:07:56;;;;;;;5.37;2.90;;;9.30;99.90;;;;;;488497;242;28488;-73
2021/05/16 04:09:57;;;;;;;6.73;2.50;;;9.30;99.90;;;;;;488476;242;28389;-73
2021/05/16 04:11:59;;;;;;;3.90;2.10;;;9.30;99.90;;;;;;488474;242;28292;-73
2021/05/16 04:14:00;;;;;;;2.23;2.03;;;9.30;99.90;;;;;;488497;242;28378;-73
2021/05/16 04:16:01;;;;;;;4.67;2.80;;;9.30;99.90;;;;;;488417;242;28302;-73
2021/05/16 04:18:02;;;;;;;3.07;2.27;;;9.30;99.90;;;;;;488476;242;28784;-73
2021/05/16 04:20:04;;;;;;;5.23;2.93;;;9.30;99.90;;;;;;488417;242;28005;-73
2021/05/16 04:22:05;;;;;;;6.80;2.37;;;9.30;99.90;;;;;;488433;242;27978;-73
2021/05/16 04:24:06;;;;;;;2.47;2.00;;;9.30;99.90;;;;;;488428;242;27719;-73
2021/05/16 04:26:07;;;;;;;3.73;2.53;;;9.30;99.90;;;;;;488435;242;28083;-73
2021/05/16 04:28:09;;;;;;;1.70;1.60;;;9.30;99.90;;;;;;488434;242;28112;-73
2021/05/16 04:30:10;;;;;;;3.87;2.07;;;9.40;99.90;;;;;;488428;242;28045;-73
2021/05/16 04:32:11;;;;;;;5.90;3.20;;;9.30;99.90;;;;;;488425;242;27714;-74
2021/05/16 04:34:12;;;;;;;7.10;2.40;;;9.30;99.90;;;;;;488417;242;27946;-73
2021/05/16 04:36:14;;;;;;;3.13;2.33;;;9.30;99.90;;;;;;488424;242;28071;-72
2021/05/16 04:38:15;;;;;;;3.03;2.57;;;9.40;99.90;;;;;;488477;242;27917;-73
2021/05/16 04:40:16;;;;;;;9.80;2.77;;;9.40;99.90;;;;;;488483;242;27900;-73
2021/05/16 04:42:17;;;;;;;2.80;2.07;;;9.40;99.90;;;;;;488421;242;28229;-73
2021/05/16 04:44:18;;;;;;;7.07;2.30;;;9.30;99.90;;;;;;488448;242;27971;-73
2021/05/16 04:46:20;;;;;;;2.23;1.90;;;9.30;99.90;;;;;;488422;242;28074;-72
2021/05/16 04:48:21;;;;;;;4.87;2.73;;;9.30;99.90;;;;;;488471;242;28252;-73
2021/05/16 04:50:22;;;;;;;3.37;2.20;;;9.30;99.90;;;;;;488479;242;28276;-73
2021/05/16 04:52:23;;;;;;;2.70;2.37;;;9.30;99.90;;;;;;488429;242;28311;-73
2021/05/16 04:54:25;;;;;;;2.30;2.10;;;9.30;99.90;;;;;;488426;242;28444;-73
2021/05/16 04:56:26;;;;;;;2.13;1.90;;;9.40;99.90;;;;;;488428;242;27958;-73
2021/05/16 04:58:27;;;;;;;4.20;2.33;;;9.40;99.90;;;;;;488418;242;27936;-73
2021/05/16 05:00:29;;;;;;;2.60;2.27;;;9.40;99.90;;;;;;488431;242;28063;-73
2021/05/16 05:02:30;;;;;;;3.60;2.60;;;9.30;99.90;;;;;;488417;242;27938;-73
2021/05/16 05:04:31;;;;;;;2.53;2.00;;;9.40;99.90;;;;;;488506;242;27815;-73
2021/05/16 05:06:32;;;;;;;7.60;2.97;;;9.40;99.90;;;;;;488420;242;27905;-73
2021/05/16 05:08:33;;;;;;;5.67;2.93;;;9.40;99.90;;;;;;488427;242;28021;-73
2021/05/16 05:10:35;;;;;;;4.27;2.40;;;9.40;99.90;;;;;;488427;242;27742;-73
2021/05/16 05:12:36;;;;;;;4.00;2.60;;;9.40;99.90;;;;;;488483;242;27718;-73
2021/05/16 05:14:37;;;;;;;6.90;3.67;;;9.40;99.90;;;;;;488466;242;27927;-73
2021/05/16 05:16:38;;;;;;;4.57;2.80;;;9.40;99.90;;;;;;488481;242;28152;-73
2021/05/16 05:18:40;;;;;;;5.80;3.23;;;9.40;99.90;;;;;;488452;242;28096;-73
2021/05/16 05:20:41;;;;;;;3.30;3.00;;;9.40;99.90;;;;;;488422;242;27964;-73
2021/05/16 05:22:42;;;;;;;5.63;2.90;;;9.40;99.90;;;;;;488404;242;27938;-73
2021/05/16 05:24:43;;;;;;;4.30;3.00;;;9.50;99.90;;;;;;488436;242;28041;-73
2021/05/16 05:26:45;;;;;;;7.47;3.43;;;9.60;99.90;;;;;;488482;242;28337;-73
2021/05/16 05:28:46;;;;;;;7.67;2.43;;;9.50;99.90;;;;;;488479;242;28464;-73
2021/05/16 05:30:47;;;;;;;2.30;2.10;;;9.60;99.90;;;;;;488457;242;28345;-73
2021/05/16 05:32:48;;;;;;;4.10;2.23;;;9.70;99.90;;;;;;488482;242;28412;-74
2021/05/16 05:34:50;;;;;;;4.40;2.40;;;9.60;99.90;;;;;;488467;242;28105;-74
2021/05/16 05:36:51;;;;;;;3.83;2.10;;;9.50;99.90;;;;;;488485;242;27820;-74
2021/05/16 05:38:52;;;;;;;3.67;2.00;;;9.40;99.90;;;;;;488473;242;27856;-73
2021/05/16 05:40:53;;;;;;;1.90;1.73;;;9.40;99.90;;;;;;488492;242;27985;-73
2021/05/16 05:42:55;;;;;;;6.50;2.17;;;9.40;99.90;;;;;;488483;242;28095;-73
2021/05/16 05:44:56;;;;;;;4.47;2.47;;;9.30;99.90;;;;;;488484;242;27605;-73
2021/05/16 05:46:57;;;;;;;5.70;1.90;;;9.30;99.90;;;;;;488439;242;28066;-74
2021/05/16 05:48:58;;;;;;;2.60;2.00;;;9.30;99.90;;;;;;488496;242;28010;-73
2021/05/16 05:51:00;;;;;;;2.13;1.97;;;9.30;99.90;;;;;;488471;242;28016;-73
2021/05/16 05:53:04;;;;;;;2.90;1.60;;;9.30;99.90;;;;;;488487;242;27947;-72
2021/05/16 05:55:05;;;;;;;5.23;2.20;;;9.30;99.90;;;;;;488476;242;28349;-73
2021/05/16 05:57:06;;;;;;;2.70;1.90;;;9.30;99.90;;;;;;488483;242;27801;-73
2021/05/16 05:59:09;;;;;;;6.50;2.20;;;9.50;99.90;;;;;;488465;242;27841;-73
2021/05/16 06:01:09;;;;;;;4.43;2.17;;;9.50;99.90;;;;;;488383;243;27773;-72
2021/05/16 06:03:10;;;;;;;2.70;2.00;;;9.60;99.90;;;;;;487955;242;27838;-73
2021/05/16 06:05:11;;;;;;;3.00;1.60;;;9.70;99.90;;;;;;486464;242;27844;-73
2021/05/16 06:07:13;;;;;;;2.13;1.60;;;9.60;99.90;;;;;;486462;243;27684;-73
2021/05/16 06:09:14;;;;;;;2.67;1.90;;;9.70;99.90;;;;;;486429;242;28061;-75
2021/05/16 06:11:15;;;;;;;2.20;1.90;;;9.80;99.90;;;;;;486473;243;27502;-72
2021/05/16 06:13:16;;;;;;;4.00;1.90;;;10.00;99.90;;;;;;485782;243;28028;-73
2021/05/16 06:15:18;;;;;;;4.30;2.20;;;10.00;99.90;;;;;;477665;244;27940;-72
2021/05/16 06:17:19;;;;;;;2.03;1.80;;;9.90;99.90;;;;;;481940;236;27905;-73
2021/05/16 06:19:20;;;;;;;5.13;2.10;;;10.00;99.90;;;;;;488641;242;27977;-72
2021/05/16 06:21:23;;;;;;;7.13;3.07;;;;;;;;;;488653;242;28434;-73
2021/05/16 06:23:32;;;;;;;3.63;2.13;;;10.20;99.90;;;;;;488629;243;27550;-72
2021/05/16 06:25:25;;;;;;;5.20;2.40;;;10.30;99.90;;;;;;488740;242;28054;-73
2021/05/16 06:27:26;;;;;;;4.13;2.37;;;10.50;99.90;;;;;;488713;243;27957;-73
2021/05/16 06:29:28;;;;;;;7.60;2.80;;;10.50;99.90;;;;;;488324;243;28283;-72
2021/05/16 06:31:29;;;;;;;3.03;2.00;;;10.50;99.90;;;;;;488647;242;28106;-72
2021/05/16 06:33:30;;;;;;;6.03;2.40;;;10.60;99.90;;;;;;488662;242;28091;-72
2021/05/16 06:35:31;;;;;;;6.37;2.27;;;10.70;99.90;;;;;;488642;243;28591;-72
2021/05/16 06:37:33;;;;;;;3.80;2.00;;;10.70;99.90;;;;;;486259;237;28656;-72
2021/05/16 06:39:34;;;;;;;5.60;2.37;;;10.70;99.90;;;;;;467128;255;28433;-72
2021/05/16 06:41:35;;;;;;;6.00;2.57;;;10.70;99.90;;;;;;483037;246;28306;-72
2021/05/16 06:43:36;;;;;;;6.20;3.00;;;10.70;99.90;;;;;;483102;246;28027;-72
2021/05/16 06:45:38;;;;;;;6.50;2.23;;;10.80;99.90;;;;;;483159;245;28162;-72
2021/05/16 06:47:39;;;;;;;10.80;2.80;;;10.80;99.90;;;;;;483158;246;28060;-72
2021/05/16 06:49:40;;;;;;;5.70;2.50;;;10.80;99.90;;;;;;483150;246;28495;-72
2021/05/16 06:51:41;;;;;;;13.90;2.60;;;10.80;99.90;;;;;;483144;246;28038;-72
2021/05/16 06:53:43;;;;;;;6.37;2.40;;;11.00;99.90;;;;;;483161;243;28513;-72
2021/05/16 06:55:44;;;;;;;11.33;2.80;;;11.00;99.90;;;;;;483097;243;28402;-73
2021/05/16 06:57:45;;;;;;;4.10;2.20;;;11.20;99.90;;;;;;483149;243;28516;-72
2021/05/16 06:59:46;;;;;;;7.20;3.00;;;11.30;99.90;;;;;;483152;246;28741;-72
2021/05/16 07:01:48;;;;;;;9.83;2.70;;;11.20;99.90;;;;;;483164;246;28715;-73
2021/05/16 07:03:49;;;;;;;12.60;2.83;;;11.10;99.90;;;;;;483096;246;28031;-72
2021/05/16 07:05:50;;;;;;;8.13;2.87;;;11.20;99.90;;;;;;483099;246;28301;-72
2021/05/16 07:07:51;;;;;;;5.97;2.63;;;11.20;99.90;;;;;;483105;246;28077;-72
2021/05/16 07:09:53;;;;;;;15.43;3.53;;;11.20;99.90;;;;;;483100;245;28120;-72
2021/05/16 07:11:54;;;;;;;9.63;2.93;;;11.20;99.90;;;;;;483111;246;28422;-72
2021/05/16 07:13:55;;;;;;;9.70;2.67;;;11.20;99.90;;;;;;483112;246;28628;-72
2021/05/16 07:15:56;;;;;;;10.10;3.10;;;11.30;99.90;;;;;;483139;246;28413;-72
2021/05/16 07:17:58;;;;;;;6.43;2.83;;;11.40;99.90;;;;;;483056;246;28738;-72
2021/05/16 07:19:59;;;;;;;7.27;2.93;;;11.70;99.90;;;;;;483084;246;28743;-72
2021/05/16 07:22:00;;;;;;;20.40;3.50;;;11.50;99.90;;;;;;483080;246;29326;-72
2021/05/16 07:24:01;;;;;;;8.53;3.50;;;11.60;99.90;;;;;;483163;246;28323;-72
2021/05/16 07:26:03;;;;;;;15.43;3.73;;;11.80;99.90;;;;;;483077;243;28420;-72
2021/05/16 07:28:04;;;;;;;11.70;3.10;;;11.90;99.90;;;;;;482975;246;28337;-72
2021/05/16 07:30:05;;;;;;;14.80;3.33;;;11.70;99.90;;;;;;483007;243;28180;-73
2021/05/16 07:32:07;;;;;;;11.93;3.10;;;11.60;99.90;;;;;;482935;246;28072;-72
2021/05/16 07:34:08;;;;;;;9.53;3.30;;;11.70;99.90;;;;;;483086;246;28195;-73
2021/05/16 07:36:09;;;;;;;9.30;3.57;;;11.80;99.90;;;;;;483111;246;28286;-73
2021/05/16 07:38:10;;;;;;;15.80;3.60;;;11.80;99.90;;;;;;483055;246;28302;-73
2021/05/16 07:40:11;;;;;;;10.70;2.87;;;11.90;99.90;;;;;;483080;246;28757;-72
2021/05/16 07:42:13;;;;;;;8.60;3.00;;;11.90;99.90;;;;;;483076;246;28871;-72
2021/05/16 07:44:14;;;;;;;9.23;2.80;;;11.90;99.90;;;;;;486726;242;28283;-72
2021/05/16 07:46:15;;;;;;;11.20;3.00;;;11.90;99.90;;;;;;490579;242;28338;-73
2021/05/16 07:48:17;;;;;;;13.90;3.43;;;11.80;99.90;;;;;;490626;242;28525;-72
2021/05/16 07:50:18;;;;;;;8.50;2.70;;;11.70;99.90;;;;;;490618;242;28314;-73
2021/05/16 07:52:20;;;;;;;7.73;2.80;;;;;;;;;;490587;242;28209;-72
2021/05/16 07:54:21;;;;;;;9.97;3.37;;;11.90;99.90;;;;;;490681;242;26952;-73
2021/05/16 07:56:23;;;;;;;12.60;3.70;;;12.00;99.90;;;;;;490587;242;28708;-72
2021/05/16 07:58:24;;;;;;;6.60;2.90;;;11.80;99.90;;;;;;482435;233;28342;-73
2021/05/16 08:00:25;;;;;;;11.00;3.17;;;11.50;99.90;;;;;;482234;246;28439;-72
2021/05/16 08:02:26;;;;;;;6.93;2.80;;;11.50;99.90;;;;;;482231;247;28333;-72
2021/05/16 08:04:28;;;;;;;10.90;3.40;;;11.50;99.90;;;;;;482219;246;28188;-72
2021/05/16 08:06:29;;;;;;;4.93;2.50;;;11.60;99.90;;;;;;482226;247;28318;-72
2021/05/16 08:08:30;;;;;;;8.20;2.83;;;11.70;99.90;;;;;;482269;246;28202;-73
2021/05/16 08:10:31;;;;;;;14.20;3.70;;;11.60;99.90;;;;;;482237;246;28355;-72
2021/05/16 08:12:33;;;;;;;8.00;2.90;;;11.60;99.90;;;;;;482095;246;28775;-73
2021/05/16 08:14:34;;;;;;;11.33;3.27;;;11.50;99.90;;;;;;482201;246;28760;-72
2021/05/16 08:16:35;;;;;;;6.50;2.70;;;11.40;99.90;;;;;;482292;246;29072;-72
2021/05/16 08:18:36;;;;;;;14.53;3.03;;;11.40;99.90;;;;;;482170;246;28335;-74
2021/05/16 08:20:38;;;;;;;11.83;3.53;;;11.40;99.90;;;;;;482048;246;28350;-72
2021/05/16 08:22:39;;;;;;;12.47;3.23;;;11.40;99.90;;;;;;482151;246;28427;-72
2021/05/16 08:24:40;;;;;;;10.57;2.80;;;11.50;99.90;;;;;;482234;246;28454;-72
2021/05/16 08:26:41;;;;;;;16.60;4.33;;;11.50;99.90;;;;;;482236;247;28288;-73
2021/05/16 08:28:43;;;;;;;10.37;3.03;;;11.60;99.90;;;;;;482243;246;28837;-72
2021/05/16 08:30:44;;;;;;;15.80;3.60;;;11.60;99.90;;;;;;482317;246;29120;-73
2021/05/16 08:32:45;;;;;;;15.30;3.40;;;11.80;99.90;;;;;;482303;246;28552;-73
2021/05/16 08:34:48;;;;;;;11.70;3.30;;;;;;;;;;482296;246;28585;-72
2021/05/16 08:36:49;;;;;;;11.60;3.07;;;12.40;99.90;;;;;;482318;246;26830;-73
2021/05/16 08:38:52;;;;;;;10.23;3.27;;;12.60;99.90;;;;;;482288;247;28916;-72
2021/05/16 08:40:51;;;;;;;15.43;3.20;;;12.60;99.90;;;;;;482275;247;28847;-73
2021/05/16 08:42:53;;;;;;;13.83;3.50;;;12.70;99.90;;;;;;482277;246;29054;-72
2021/05/16 08:44:54;;;;;;;9.67;3.10;;;12.90;99.90;;;;;;482290;246;28678;-73
2021/05/16 08:46:55;;;;;;;14.53;3.47;;;13.10;99.90;;;;;;482233;246;28317;-74
2021/05/16 08:48:56;;;;;;;10.03;3.40;;;13.30;99.90;;;;;;482235;246;28279;-73
2021/05/16 08:50:58;;;;;;;13.10;3.30;;;13.00;99.90;;;;;;482250;246;28536;-73
2021/05/16 08:52:59;;;;;;;6.13;2.83;;;12.90;99.90;;;;;;482280;246;28524;-73
2021/05/16 08:55:00;;;;;;;12.93;3.57;;;12.90;99.90;;;;;;482230;246;28508;-72
2021/05/16 08:57:01;;;;;;;9.67;3.10;;;12.90;99.90;;;;;;482260;246;28535;-73
2021/05/16 08:59:03;;;;;;;9.07;3.13;;;12.70;99.90;;;;;;482874;246;28821;-72
2021/05/16 09:01:04;;;;;;;11.17;3.30;;;12.50;99.90;;;;;;483114;246;28754;-73
2021/05/16 09:03:05;;;;;;;11.87;2.90;;;12.50;99.90;;;;;;483170;246;29156;-73
2021/05/16 09:05:06;;;;;;;7.07;2.93;;;12.40;99.90;;;;;;483168;246;28631;-72
2021/05/16 09:07:08;;;;;;;11.00;2.93;;;12.30;99.90;;;;;;483114;246;28174;-74
2021/05/16 09:09:09;;;;;;;8.57;2.80;;;12.30;99.90;;;;;;483108;245;28404;-73
2021/05/16 09:11:10;;;;;;;7.73;3.10;;;12.30;99.90;;;;;;483116;246;28283;-72
2021/05/16 09:13:12;;;;;;;11.73;3.00;;;12.40;99.90;;;;;;483121;246;28220;-72
2021/05/16 09:15:13;;;;;;;7.17;3.10;;;12.40;99.90;;;;;;483105;246;28371;-73
2021/05/16 09:17:14;;;;;;;11.47;3.43;;;12.50;99.90;;;;;;483117;246;28294;-74
2021/05/16 09:19:15;;;;;;;10.40;3.57;;;12.50;99.90;;;;;;483112;246;28224;-73
2021/05/16 09:21:19;;;;;;;8.77;3.47;;;12.60;99.90;;;;;;483109;246;28570;-73
2021/05/16 09:23:18;;;;;;;6.50;2.50;;;12.60;99.90;;;;;;483133;246;28761;-73
2021/05/16 09:25:19;;;;;;;6.87;2.63;;;12.80;99.90;;;;;;483115;246;28639;-72
2021/05/16 09:27:20;;;;;;;11.97;3.40;;;13.00;99.90;;;;;;483118;246;28774;-73
2021/05/16 09:29:21;;;;;;;7.83;3.10;;;12.90;99.90;;;;;;483107;246;28387;-72
2021/05/16 09:31:23;;;;;;;8.37;2.83;;;12.70;99.90;;;;;;483107;246;28298;-72
2021/05/16 09:33:24;;;;;;;10.03;3.10;;;12.50;99.90;;;;;;483117;246;28282;-73
2021/05/16 09:35:25;;;;;;;8.20;3.00;;;12.50;99.90;;;;;;483114;246;28330;-73
2021/05/16 09:37:28;;;;;;;9.77;2.60;;;;;;;;;;483117;246;28314;-72
2021/05/16 09:39:29;;;;;;;11.37;3.10;;;12.40;99.90;;;;;;483106;245;27087;-73
2021/05/16 09:41:30;;;;;;;13.07;3.00;;;12.50;99.90;;;;;;483108;245;28321;-73
2021/05/16 09:43:31;;;;;;;10.60;4.10;;;12.40;99.90;;;;;;483110;246;28208;-73
2021/05/16 09:45:33;;;;;;;8.30;3.40;;;12.20;99.90;;;;;;483087;246;28178;-73
2021/05/16 09:47:35;;;;;;;10.20;2.40;;;;;;;;;;483117;246;28905;-73
2021/05/16 09:49:36;;;;;;;8.33;2.60;;;12.20;99.90;;;;;;483104;245;26611;-73
2021/05/16 09:51:38;;;;;;;13.50;3.10;;;12.30;99.90;;;;;;483126;243;28183;-73
2021/05/16 09:53:39;;;;;;;7.20;2.83;;;12.30;99.90;;;;;;483106;246;28317;-74
2021/05/16 09:55:41;;;;;;;8.00;2.33;;;;;;;;;;483109;246;28181;-73
2021/05/16 09:57:43;;;;;;;13.90;3.03;;;12.10;99.90;;;;;;483114;245;27050;-73
2021/05/16 09:59:44;;;;;;;4.73;2.70;;;12.30;99.90;;;;;;483077;246;28410;-73
2021/05/16 10:01:45;;;;;;;7.37;3.20;;;12.30;99.90;;;;;;483109;246;28301;-72
2021/05/16 10:03:48;;;;;;;6.40;3.10;;;12.50;99.90;;;;;;483090;246;28310;-72
2021/05/16 10:05:48;;;;;;;10.97;3.07;;;12.50;99.90;;;;;;483149;246;28168;-73
2021/05/16 10:07:50;;;;;;;7.40;2.63;;;;;;;;;;483122;246;28390;-72
2021/05/16 10:09:51;;;;;;;6.00;2.97;;;12.60;99.90;;;;;;483166;245;27497;-72
2021/05/16 10:11:52;;;;;;;8.70;3.40;;;12.90;99.90;;;;;;483091;246;28066;-73
2021/05/16 10:13:54;;;;;;;10.27;3.33;;;13.00;99.90;;;;;;483107;246;28306;-72
2021/05/16 10:15:55;;;;;;;10.30;2.77;;;13.10;99.90;;;;;;483120;246;28312;-73
2021/05/16 10:17:56;;;;;;;7.67;2.60;;;13.30;99.90;;;;;;483108;246;28328;-73
2021/05/16 10:19:57;;;;;;;7.30;2.73;;;13.60;99.90;;;;;;483093;246;28509;-72
2021/05/16 10:21:59;;;;;;;7.40;2.60;;;13.70;99.90;;;;;;483106;246;28511;-72
2021/05/16 10:24:00;;;;;;;10.70;2.80;;;13.50;99.90;;;;;;483101;246;28271;-73
2021/05/16 10:26:01;;;;;;;8.90;2.63;;;13.30;99.90;;;;;;483140;246;29000;-73
2021/05/16 10:28:03;;;;;;;13.37;2.90;;;13.50;99.90;;;;;;483146;246;29101;-72
2021/05/16 10:30:04;;;;;;;8.63;3.07;;;13.70;99.90;;;;;;483137;246;29344;-73
2021/05/16 10:32:06;;;;;;;7.70;2.70;;;13.80;99.90;;;;;;483105;243;28871;-72
2021/05/16 10:34:06;;;;;;;12.30;2.83;;;13.80;99.90;;;;;;483089;243;28831;-73
2021/05/16 10:36:07;;;;;;;6.43;2.90;;;13.60;99.90;;;;;;483137;246;28529;-72